KEGI/EGI METAR and TAF weather

Enter ICAO airport designator
Station Type Date Time Source
KEGI METAR 2020/09/28 09:33 UTC NOAA

KEGI 280933Z AUTO 05003KT 3/4SM R18/3000FT BR OVC001 23/ A2986 RMK AO2 SLP111 $


Station Type Date Time Source
KEGI Decoded METAR 2020/09/28 09:33 UTC NOAA

Duke Field / Eglin Auxiliary, FL, United States (KEGI) 30-39N 086-31W
Sep 28, 2020 - 05:33 AM EDT / 2020.09.28 0933 UTC
Wind: from the NE (050 degrees) at 3 MPH (3 KT):0
Visibility: 3/4 mile(s):0
Sky conditions: overcast
Weather: mist
Temperature: 73 F (23 C)
Pressure (altimeter): 29.86 in. Hg (1011 hPa)
ob: KEGI 280933Z AUTO 05003KT 3/4SM R18/3000FT BR OVC001 23/ A2986 RMK AO2 SLP111
cycle: 9

Station Type Date Time Source
KEGI TAF 2020/09/28 09:00 UTC NOAA

TAF KEGI 280900Z 2809/2915 VRB06KT 3200 BR OVC002 QNH2985INS
TEMPO 2809/2814 1600 BR OVC001
BECMG 2814/2815 24009KT 9999 NSW SCT005 SCT030 QNH2985INS
BECMG 2817/2818 24009KT 8000 -SHRA SCT020 QNH2987INS
TEMPO 2818/2821 27012G20KT 4800 -TSRA BKN020CB
BECMG 2822/2823 24009KT 9999 NSW SCT020 QNH2989INS
BECMG 2902/2903 VRB06KT 9999 BKN015 QNH2984INS TX29/2821Z TN22/2814Z LAST NO
AMDS AFT 2809 NEXT 2813

Example: see airport list